createdAt,value
2023-04-02T00:01:37.855Z,70.42
2023-04-02T00:06:45.167Z,70.71
2023-04-02T00:11:50.825Z,70.43
2023-04-02T00:16:54.366Z,70.60
2023-04-02T00:21:58.584Z,70.40
2023-04-02T00:27:02.650Z,70.78
2023-04-02T00:32:05.650Z,71.00
2023-04-02T00:37:09.074Z,71.01
2023-04-02T00:42:14.109Z,70.57
2023-04-02T00:47:20.196Z,69.89
2023-04-02T00:52:25.833Z,71.08
2023-04-02T00:57:29.987Z,70.35
2023-04-02T01:02:34.124Z,71.00
2023-04-02T01:07:58.137Z,70.49
2023-04-02T01:13:09.762Z,71.16
2023-04-02T01:18:21.820Z,71.86
2023-04-02T01:23:29.569Z,71.97
2023-04-02T01:28:47.260Z,71.52
2023-04-02T01:33:50.089Z,71.83
2023-04-02T01:38:58.708Z,72.03
2023-04-02T01:44:04.612Z,71.93
2023-04-02T01:49:13.883Z,71.40
2023-04-02T01:54:18.001Z,72.15
2023-04-02T01:59:22.911Z,72.02
2023-04-02T02:04:31.049Z,70.69
2023-04-02T02:09:35.575Z,71.32
2023-04-02T02:14:40.172Z,72.48
2023-04-02T02:19:45.219Z,71.47
2023-04-02T02:24:48.095Z,72.00
2023-04-02T02:29:54.663Z,72.56
2023-04-02T02:35:01.946Z,69.95
2023-04-02T02:40:10.848Z,71.48
2023-04-02T02:45:19.074Z,70.42
2023-04-02T02:50:24.508Z,70.37
2023-04-02T02:55:32.063Z,71.69
2023-04-02T03:00:58.614Z,72.36
2023-04-02T03:06:05.290Z,71.86
2023-04-02T03:11:13.603Z,72.08
2023-04-02T03:16:22.060Z,71.28
2023-04-02T03:21:29.426Z,72.56
2023-04-02T03:26:35.810Z,71.44
2023-04-02T03:31:44.887Z,70.63
2023-04-02T03:36:53.647Z,71.74
2023-04-02T03:41:59.187Z,70.66
2023-04-02T03:47:06.680Z,72.29
2023-04-02T03:52:12.729Z,70.33
2023-04-02T03:57:24.854Z,71.23
2023-04-02T04:02:36.514Z,69.04
2023-04-02T04:07:41.371Z,69.02
2023-04-02T04:12:47.711Z,73.02
2023-04-02T04:18:02.023Z,72.97
2023-04-02T04:23:12.334Z,71.40
2023-04-02T04:28:22.164Z,71.70
2023-04-02T04:33:34.524Z,71.65
2023-04-02T04:38:44.256Z,72.00
2023-04-02T04:43:53.692Z,72.96
2023-04-02T04:49:03.149Z,73.48
2023-04-02T04:54:12.284Z,72.79
2023-04-02T04:59:19.760Z,72.42
2023-04-02T05:04:26.776Z,73.08
2023-04-02T05:09:33.645Z,73.03
2023-04-02T05:14:39.576Z,72.32
2023-04-02T05:19:47.412Z,71.87
2023-04-02T05:24:58.520Z,73.38
2023-04-02T05:30:08.515Z,72.34
2023-04-02T05:35:18.298Z,72.30
2023-04-02T05:40:24.541Z,70.90
2023-04-02T05:45:31.502Z,71.66
2023-04-02T05:50:43.064Z,72.33
2023-04-02T05:55:54.672Z,72.05
2023-04-02T06:01:03.941Z,68.05
2023-04-02T06:06:15.478Z,67.68
2023-04-02T06:11:20.824Z,66.46
2023-04-02T06:16:27.694Z,66.17
2023-04-02T06:21:32.777Z,62.17
2023-04-02T06:26:38.097Z,63.50
2023-04-02T06:31:48.326Z,63.15
2023-04-02T06:36:56.941Z,62.78
2023-04-02T06:42:02.833Z,60.22
2023-04-02T06:47:31.393Z,61.72
2023-04-02T06:52:37.651Z,61.88
2023-04-02T06:57:43.110Z,60.94
2023-04-02T07:02:47.235Z,61.82
2023-04-02T07:07:51.842Z,61.53
2023-04-02T07:12:54.785Z,60.36
2023-04-02T07:17:59.670Z,60.82
2023-04-02T07:23:05.020Z,61.30
2023-04-02T07:28:07.726Z,63.49
2023-04-02T07:39:28.850Z,63.33
2023-04-02T07:44:31.498Z,62.56
2023-04-02T07:49:34.230Z,60.31
2023-04-02T07:54:38.427Z,62.36
2023-04-02T07:59:41.293Z,64.66
2023-04-02T08:04:44.024Z,64.88
2023-04-02T08:09:48.089Z,60.44
2023-04-02T08:14:50.783Z,62.23
2023-04-02T08:19:55.039Z,63.33
2023-04-02T08:25:43.326Z,63.98
2023-04-02T08:30:46.343Z,62.23
2023-04-02T08:35:50.470Z,62.67
2023-04-02T08:40:57.600Z,59.58
2023-04-02T08:46:08.682Z,64.59
2023-04-02T08:51:20.958Z,64.92
2023-04-02T08:56:30.543Z,64.40
2023-04-02T09:01:41.462Z,65.54
2023-04-02T09:06:44.757Z,60.12
2023-04-02T09:11:53.283Z,64.57
2023-04-02T09:16:57.485Z,65.58
2023-04-02T09:22:06.960Z,65.71
2023-04-02T09:27:19.367Z,68.19
2023-04-02T09:32:41.484Z,68.88
2023-04-02T09:37:45.173Z,67.58
2023-04-02T09:42:49.191Z,66.29
2023-04-02T09:47:53.521Z,68.46
2023-04-02T09:52:56.369Z,62.82
2023-04-02T09:58:13.564Z,67.35
2023-04-02T10:03:22.791Z,66.70
2023-04-02T10:08:28.122Z,68.29
2023-04-02T10:13:36.015Z,70.12
2023-04-02T10:18:42.776Z,68.58
2023-04-02T10:23:45.474Z,70.11
2023-04-02T10:29:06.965Z,70.49
2023-04-02T10:34:13.957Z,69.45
2023-04-02T10:39:19.756Z,69.20
2023-04-02T10:44:52.625Z,67.67
2023-04-02T10:50:05.870Z,67.75
2023-04-02T10:55:16.114Z,65.66
2023-04-02T11:00:24.118Z,70.64
2023-04-02T11:05:32.176Z,67.71
2023-04-02T11:10:36.598Z,69.24
2023-04-02T11:15:40.847Z,69.78
2023-04-02T11:20:59.117Z,62.72
2023-04-02T11:26:34.013Z,69.64
2023-04-02T11:31:38.821Z,68.93
2023-04-02T11:37:01.418Z,70.01
2023-04-02T11:42:06.804Z,65.99
2023-04-02T11:47:21.413Z,66.56
2023-04-02T11:52:27.608Z,67.46
2023-04-02T11:57:48.368Z,68.40
2023-04-02T12:03:03.389Z,68.75
2023-04-02T12:08:18.818Z,66.97
2023-04-02T12:13:22.095Z,69.27
2023-04-02T12:18:26.479Z,69.98
2023-04-02T12:23:31.287Z,69.87
2023-04-02T12:28:37.946Z,70.58
2023-04-02T12:33:42.762Z,68.06
2023-04-02T12:38:46.867Z,68.46
2023-04-02T12:43:58.287Z,67.77
2023-04-02T12:49:06.150Z,68.15
2023-04-02T12:54:14.392Z,67.57
2023-04-02T12:59:28.741Z,68.42
2023-04-02T13:04:32.770Z,67.73
2023-04-02T13:09:37.301Z,67.15
2023-04-02T13:14:40.043Z,68.27
2023-04-02T13:19:44.154Z,62.46
2023-04-02T13:24:46.857Z,68.42
2023-04-02T13:29:49.550Z,67.28
2023-04-02T13:34:53.568Z,65.29
2023-04-02T13:39:56.229Z,64.76
2023-04-02T13:44:58.908Z,63.37
2023-04-02T13:50:03.114Z,68.73
2023-04-02T13:55:06.817Z,68.25
2023-04-02T14:00:11.303Z,68.37
2023-04-02T14:05:26.579Z,64.57
2023-04-02T14:10:38.331Z,66.11
2023-04-02T14:15:52.718Z,65.81
2023-04-02T14:21:22.313Z,66.27
2023-04-02T14:26:30.687Z,67.09
2023-04-02T14:31:36.169Z,70.16
2023-04-02T14:36:48.509Z,69.77
2023-04-02T14:41:54.280Z,70.70
2023-04-02T14:47:00.682Z,71.03
2023-04-02T14:52:06.246Z,70.91
2023-04-02T14:57:16.793Z,69.54
2023-04-02T15:02:23.665Z,69.61
2023-04-02T15:07:34.730Z,71.61
2023-04-02T15:12:39.984Z,67.19
2023-04-02T15:17:42.816Z,69.72
2023-04-02T15:22:58.313Z,70.11
2023-04-02T15:28:12.470Z,71.00
2023-04-02T15:33:42.843Z,70.94
2023-04-02T15:38:49.435Z,65.81
2023-04-02T15:44:00.064Z,67.42
2023-04-02T15:49:19.968Z,67.57
2023-04-02T15:54:52.866Z,69.11
2023-04-02T16:00:16.573Z,65.32
2023-04-02T16:05:23.843Z,66.95
2023-04-02T16:10:41.083Z,70.87
2023-04-02T16:15:50.584Z,70.47
2023-04-02T16:20:54.327Z,68.23
2023-04-02T16:26:03.600Z,69.50
2023-04-02T16:31:09.393Z,69.54
2023-04-02T16:36:21.425Z,69.32
2023-04-02T16:41:38.528Z,70.30
2023-04-02T16:46:48.943Z,72.01
2023-04-02T16:51:59.729Z,64.18
2023-04-02T16:57:17.875Z,71.99
2023-04-02T17:02:28.143Z,71.67
2023-04-02T17:07:35.585Z,69.13
2023-04-02T17:12:44.482Z,68.27
2023-04-02T17:17:47.150Z,68.93
2023-04-02T17:22:50.313Z,72.32
2023-04-02T17:27:56.794Z,72.96
2023-04-02T17:32:59.614Z,71.76
2023-04-02T17:38:08.493Z,71.49
2023-04-02T17:43:19.243Z,68.68
2023-04-02T17:48:27.825Z,71.95
2023-04-02T17:53:41.061Z,70.61
2023-04-02T17:58:54.151Z,71.93
2023-04-02T18:04:08.679Z,72.17
2023-04-02T18:09:22.793Z,69.40
2023-04-02T18:14:44.215Z,71.12
2023-04-02T18:19:51.705Z,70.88
2023-04-02T18:25:17.428Z,72.14
2023-04-02T18:30:28.129Z,71.18
2023-04-02T18:35:34.238Z,69.26
2023-04-02T18:40:43.293Z,70.49
2023-04-02T18:45:53.444Z,71.01
2023-04-02T18:50:56.308Z,72.49
2023-04-02T18:56:01.475Z,69.79
2023-04-02T19:01:07.180Z,68.74
2023-04-02T19:06:11.310Z,67.09
2023-04-02T19:11:16.908Z,63.21
2023-04-02T19:16:56.216Z,62.62
2023-04-02T19:22:14.588Z,63.32
2023-04-02T19:27:24.572Z,61.43
2023-04-02T19:32:34.629Z,61.54
2023-04-02T19:37:41.158Z,60.93
2023-04-02T19:42:45.847Z,60.92
2023-04-02T19:47:49.979Z,60.88
2023-04-02T19:52:52.708Z,60.52
2023-04-02T19:58:04.462Z,60.08
2023-04-02T20:03:19.413Z,60.36
2023-04-02T20:08:27.776Z,60.59
2023-04-02T20:13:30.557Z,60.26
2023-04-02T20:18:36.955Z,60.61
2023-04-02T20:23:39.792Z,60.75
2023-04-02T20:28:42.478Z,60.84
2023-04-02T20:33:47.931Z,61.11
2023-04-02T20:38:51.828Z,60.97
2023-04-02T20:43:54.512Z,61.60
2023-04-02T20:48:58.612Z,62.10
2023-04-02T20:54:01.769Z,62.22
2023-04-02T20:59:04.539Z,62.16
2023-04-02T21:04:09.076Z,62.80
2023-04-02T21:15:53.673Z,63.52
2023-04-02T21:21:02.290Z,63.57
2023-04-02T21:26:06.512Z,63.96
2023-04-02T21:31:11.428Z,64.15
2023-04-02T21:36:16.574Z,64.46
2023-04-02T21:41:21.290Z,64.44
2023-04-02T21:46:26.038Z,64.60
2023-04-02T21:51:31.384Z,65.02
2023-04-02T21:56:35.578Z,65.09
2023-04-02T22:01:40.043Z,64.55
2023-04-02T22:06:44.511Z,64.33
2023-04-02T22:11:49.404Z,63.98
2023-04-02T22:16:52.804Z,64.24
2023-04-02T22:21:57.314Z,64.16
2023-04-02T22:27:00.185Z,64.31
2023-04-02T22:32:02.973Z,64.35
2023-04-02T22:37:07.104Z,64.19
2023-04-02T22:42:09.926Z,64.49
2023-04-02T22:47:12.723Z,64.52
2023-04-02T22:52:16.787Z,64.79
2023-04-02T22:57:19.747Z,65.33
2023-04-02T23:02:22.624Z,65.30
2023-04-02T23:07:27.248Z,65.31
2023-04-02T23:12:29.984Z,65.33
2023-04-02T23:17:32.684Z,65.45
2023-04-02T23:22:37.739Z,65.71
2023-04-02T23:27:40.499Z,65.78
2023-04-02T23:32:43.249Z,66.01
2023-04-02T23:37:49.543Z,66.43
2023-04-02T23:42:52.311Z,66.25
2023-04-02T23:47:55.259Z,66.33
2023-04-02T23:52:59.321Z,66.78
2023-04-02T23:58:02.041Z,66.84
